Time;durP1;ratioP1;P1;durP2;ratioP2;P2;SDS_P1;SDS_P2;PMS_P1;PMS_P2;Temp;Humidity;BMP_temperature;BMP_pressure;BME280_temperature;BME280_humidity;BME280_pressure;Samples;Min_cycle;Max_cycle;Signal;HPM_P1;HPM_P2
2024/02/02 00:00:07;;;;;;;24.17;4.78;;;5.80;99.90;;;;;;5011062;28;20041;-78
2024/02/02 00:02:37;;;;;;;28.27;5.03;;;5.80;99.90;;;;;;5005343;28;20068;-78
2024/02/02 00:05:06;;;;;;;30.13;4.72;;;5.90;99.90;;;;;;5000547;28;20050;-78
2024/02/02 00:07:33;;;;;;;27.70;5.20;;;5.80;99.90;;;;;;5005510;28;20561;-79
2024/02/02 00:09:59;;;;;;;25.25;4.72;;;5.80;99.90;;;;;;5003309;28;20042;-78
2024/02/02 00:12:25;;;;;;;29.25;5.00;;;5.80;99.90;;;;;;5008639;28;20039;-78
2024/02/02 00:14:50;;;;;;;30.55;4.88;;;5.90;99.90;;;;;;5009929;28;20101;-78
2024/02/02 00:17:16;;;;;;;23.73;4.50;;;5.90;99.90;;;;;;5008347;28;20050;-77
2024/02/02 00:19:41;;;;;;;27.05;4.78;;;5.90;99.90;;;;;;5005864;28;20046;-77
2024/02/02 00:22:07;;;;;;;22.08;4.63;;;5.90;99.90;;;;;;4996513;28;20471;-77
2024/02/02 00:24:32;;;;;;;25.65;6.43;;;5.90;99.90;;;;;;5004111;28;20046;-78
2024/02/02 00:26:58;;;;;;;22.65;4.57;;;5.90;99.90;;;;;;5003238;28;20073;-77
2024/02/02 00:29:23;;;;;;;25.45;5.18;;;5.90;99.90;;;;;;4996285;28;20043;-80
2024/02/02 00:31:49;;;;;;;22.00;5.28;;;5.90;99.90;;;;;;5004307;28;20034;-77
2024/02/02 00:34:15;;;;;;;27.92;5.43;;;5.90;99.90;;;;;;5010198;28;20050;-79
2024/02/02 00:36:40;;;;;;;25.80;5.28;;;5.90;99.90;;;;;;5005643;28;20574;-78
2024/02/02 00:39:06;;;;;;;26.33;6.15;;;5.90;99.90;;;;;;5005576;28;20060;-78
2024/02/02 00:41:31;;;;;;;23.65;5.50;;;5.90;99.90;;;;;;5009320;28;20050;-78
2024/02/02 00:43:57;;;;;;;22.52;5.93;;;5.90;99.90;;;;;;5010073;28;20089;-77
2024/02/02 00:46:22;;;;;;;32.08;6.03;;;5.90;99.90;;;;;;5009336;28;20037;-77
2024/02/02 00:48:48;;;;;;;21.88;6.05;;;5.90;99.90;;;;;;5008300;28;20033;-77
2024/02/02 00:51:13;;;;;;;22.73;7.28;;;5.90;99.90;;;;;;5006767;28;20049;-77
2024/02/02 00:53:39;;;;;;;28.98;6.70;;;6.00;99.90;;;;;;5003921;28;20046;-77
2024/02/02 00:56:05;;;;;;;32.10;6.93;;;5.90;99.90;;;;;;5009787;28;20050;-77
2024/02/02 00:58:30;;;;;;;26.83;7.13;;;5.90;99.90;;;;;;5001692;28;20412;-77
2024/02/02 01:00:56;;;;;;;30.30;8.30;;;5.90;99.90;;;;;;5013688;28;20116;-77
2024/02/02 01:03:21;;;;;;;31.85;7.35;;;5.90;99.90;;;;;;5013990;28;20447;-79
2024/02/02 01:05:47;;;;;;;32.83;8.80;;;5.90;99.90;;;;;;5013889;28;20056;-77
2024/02/02 01:08:13;;;;;;;32.33;7.75;;;5.90;99.90;;;;;;5013765;28;20104;-78
2024/02/02 01:10:38;;;;;;;30.23;8.52;;;5.90;99.90;;;;;;5014660;28;20111;-77
2024/02/02 01:13:04;;;;;;;33.15;7.88;;;5.90;99.90;;;;;;5013907;28;20036;-78
2024/02/02 01:15:30;;;;;;;37.35;9.07;;;5.90;99.90;;;;;;5014028;28;20128;-79
2024/02/02 01:17:55;;;;;;;30.55;8.85;;;5.90;99.90;;;;;;5014309;28;20038;-77
2024/02/02 01:20:21;;;;;;;35.00;9.95;;;6.00;99.90;;;;;;5011454;28;20041;-77
2024/02/02 01:22:47;;;;;;;28.05;9.90;;;5.90;99.90;;;;;;5013932;28;20104;-77
2024/02/02 01:25:14;;;;;;;36.83;10.50;;;5.90;99.90;;;;;;5003169;28;20050;-77
2024/02/02 01:27:40;;;;;;;39.42;10.55;;;5.90;99.90;;;;;;5007477;28;20562;-77
2024/02/02 01:30:07;;;;;;;32.65;8.93;;;5.90;99.90;;;;;;5009514;28;20042;-77
2024/02/02 01:32:33;;;;;;;37.00;9.95;;;5.90;99.90;;;;;;5012971;28;20049;-77
2024/02/02 01:34:59;;;;;;;25.60;10.02;;;5.90;99.90;;;;;;5014359;28;20441;-77
2024/02/02 01:37:25;;;;;;;34.13;10.82;;;5.90;99.90;;;;;;5014606;28;20137;-77
2024/02/02 01:39:50;;;;;;;29.58;10.15;;;5.90;99.90;;;;;;5005691;28;20157;-77
2024/02/02 01:42:16;;;;;;;33.53;10.98;;;5.90;99.90;;;;;;5013664;28;20120;-78
2024/02/02 01:44:41;;;;;;;35.83;10.65;;;5.90;99.90;;;;;;5009828;28;20124;-78
2024/02/02 01:47:07;;;;;;;34.28;11.75;;;5.90;99.90;;;;;;5013188;28;20037;-77
2024/02/02 01:49:34;;;;;;;32.15;10.85;;;5.90;99.90;;;;;;5012357;28;20038;-77
2024/02/02 01:52:01;;;;;;;35.58;10.82;;;5.90;99.90;;;;;;5013161;28;20046;-78
2024/02/02 01:54:27;;;;;;;35.10;11.27;;;5.90;99.90;;;;;;5013037;28;20602;-77
2024/02/02 01:56:54;;;;;;;33.17;10.63;;;5.90;99.90;;;;;;5012308;28;20038;-79
2024/02/02 01:59:19;;;;;;;31.42;10.77;;;5.80;99.90;;;;;;5009422;28;20038;-78
2024/02/02 02:01:45;;;;;;;36.88;11.23;;;5.90;99.90;;;;;;5009957;28;20041;-79
2024/02/02 02:04:11;;;;;;;39.03;11.98;;;5.90;99.90;;;;;;5008960;28;20126;-78
2024/02/02 02:06:37;;;;;;;37.50;11.23;;;5.90;99.90;;;;;;5011309;28;20381;-78
2024/02/02 02:09:03;;;;;;;35.08;10.13;;;5.90;99.90;;;;;;5011858;28;20084;-78
2024/02/02 02:11:29;;;;;;;31.08;9.93;;;5.90;99.90;;;;;;5011774;28;20452;-78
2024/02/02 02:13:55;;;;;;;33.70;11.25;;;5.90;99.90;;;;;;5011127;28;20392;-78
2024/02/02 02:16:21;;;;;;;38.85;10.63;;;5.90;99.90;;;;;;5009326;28;20162;-78
2024/02/02 02:18:47;;;;;;;23.98;9.00;;;5.90;99.90;;;;;;4997986;28;20038;-78
2024/02/02 02:21:26;;;;;;;29.00;9.30;;;5.90;99.90;;;;;;5004616;28;20048;-78
2024/02/02 02:23:53;;;;;;;32.72;9.48;;;6.00;99.90;;;;;;5011482;28;20054;-78
2024/02/02 02:26:19;;;;;;;32.58;9.18;;;6.00;99.90;;;;;;5010956;28;20495;-78
2024/02/02 02:28:46;;;;;;;34.13;10.43;;;6.00;99.90;;;;;;5011989;28;20407;-78
2024/02/02 02:31:16;;;;;;;29.20;8.02;;;6.00;99.90;;;;;;5001016;28;20038;-80
2024/02/02 02:33:43;;;;;;;30.10;9.00;;;6.00;99.90;;;;;;5011331;28;20053;-78
2024/02/02 02:36:12;;;;;;;28.77;8.25;;;6.00;99.90;;;;;;5007039;28;20048;-78
2024/02/02 02:38:38;;;;;;;26.17;7.50;;;6.00;99.90;;;;;;5007546;28;20122;-78
2024/02/02 02:41:03;;;;;;;35.60;7.63;;;6.00;99.90;;;;;;5012110;28;20129;-78
2024/02/02 02:43:30;;;;;;;17.73;6.60;;;6.00;99.90;;;;;;5012062;28;20049;-78
2024/02/02 02:45:56;;;;;;;30.02;7.55;;;6.10;99.90;;;;;;5013094;28;20089;-78
2024/02/02 02:48:22;;;;;;;26.83;6.60;;;6.10;99.90;;;;;;5004927;28;20088;-78
2024/02/02 02:50:47;;;;;;;27.38;7.10;;;6.10;99.90;;;;;;5009630;28;20073;-78
2024/02/02 02:53:13;;;;;;;28.05;8.13;;;6.10;99.90;;;;;;5013376;28;20077;-79
2024/02/02 02:55:39;;;;;;;22.52;5.97;;;6.10;99.90;;;;;;5013160;28;20046;-78
2024/02/02 02:58:04;;;;;;;25.60;7.05;;;6.10;99.90;;;;;;5010748;28;20393;-78
2024/02/02 03:00:31;;;;;;;29.83;6.47;;;6.10;99.90;;;;;;5006400;28;20045;-78
2024/02/02 03:03:00;;;;;;;31.67;8.27;;;6.10;99.90;;;;;;5012759;28;20702;-78
2024/02/02 03:05:28;;;;;;;25.98;7.25;;;6.10;99.90;;;;;;5002889;28;20065;-78
2024/02/02 03:07:54;;;;;;;29.73;7.43;;;6.10;99.90;;;;;;5008101;28;20042;-78
2024/02/02 03:10:25;;;;;;;27.88;7.57;;;6.20;99.90;;;;;;5007087;28;20038;-78
2024/02/02 03:12:51;;;;;;;24.98;6.90;;;6.10;99.90;;;;;;5005512;28;20095;-78
2024/02/02 03:15:18;;;;;;;28.13;8.35;;;6.10;99.90;;;;;;5001562;28;20073;-78
2024/02/02 03:17:44;;;;;;;27.20;7.40;;;6.20;99.90;;;;;;5008680;28;20562;-78
2024/02/02 03:20:11;;;;;;;27.15;6.47;;;6.20;99.90;;;;;;5006084;28;20049;-78
2024/02/02 03:22:38;;;;;;;23.77;6.90;;;6.20;99.90;;;;;;5004419;28;20124;-78
2024/02/02 03:25:05;;;;;;;26.13;7.00;;;6.20;99.90;;;;;;5008619;28;20046;-80
2024/02/02 03:27:30;;;;;;;26.60;7.55;;;6.20;99.90;;;;;;5012192;28;20033;-78
2024/02/02 03:29:56;;;;;;;27.55;7.13;;;6.20;99.90;;;;;;5011370;28;20403;-80
2024/02/02 03:32:21;;;;;;;27.55;7.70;;;6.20;99.90;;;;;;5008420;28;20085;-78
2024/02/02 03:34:47;;;;;;;29.75;8.48;;;6.20;99.90;;;;;;5005976;28;20049;-78
2024/02/02 03:37:12;;;;;;;28.88;6.82;;;6.30;99.90;;;;;;5008285;28;20038;-78
2024/02/02 03:39:38;;;;;;;28.17;7.30;;;6.30;99.90;;;;;;5014070;28;20036;-79
2024/02/02 03:42:04;;;;;;;33.42;7.57;;;6.30;99.90;;;;;;5011196;28;20084;-77
2024/02/02 03:44:30;;;;;;;28.67;7.05;;;6.30;99.90;;;;;;5011049;28;20046;-78
2024/02/02 03:46:55;;;;;;;27.90;7.78;;;6.30;99.90;;;;;;5004928;28;20141;-78
2024/02/02 03:49:21;;;;;;;32.58;7.72;;;6.30;99.90;;;;;;5011065;28;20055;-78
2024/02/02 03:51:47;;;;;;;32.53;7.18;;;6.30;99.90;;;;;;5008838;28;20484;-79
2024/02/02 03:54:12;;;;;;;27.75;7.88;;;6.30;99.90;;;;;;5005302;28;20041;-77
2024/02/02 03:56:40;;;;;;;24.25;6.78;;;6.30;99.90;;;;;;5003191;28;20120;-78
2024/02/02 03:59:06;;;;;;;24.88;6.80;;;6.30;99.90;;;;;;5010310;28;20054;-81
2024/02/02 04:01:31;;;;;;;25.88;7.32;;;6.40;99.90;;;;;;5001057;28;20057;-77
2024/02/02 04:03:57;;;;;;;27.00;6.63;;;6.40;99.90;;;;;;4989898;28;20046;-77
2024/02/02 04:06:22;;;;;;;27.33;8.43;;;6.40;99.90;;;;;;5013331;28;20041;-79
2024/02/02 04:08:48;;;;;;;28.27;8.15;;;6.40;99.90;;;;;;5010443;28;20052;-77
2024/02/02 04:11:13;;;;;;;30.77;6.93;;;6.40;99.90;;;;;;5007508;28;20396;-77
2024/02/02 04:13:39;;;;;;;27.23;7.35;;;6.40;99.90;;;;;;5011537;28;20037;-78
2024/02/02 04:16:05;;;;;;;30.08;7.07;;;6.40;99.90;;;;;;5006238;28;20049;-79
2024/02/02 04:18:31;;;;;;;25.30;7.65;;;6.40;99.90;;;;;;5003563;28;20045;-79
2024/02/02 04:20:57;;;;;;;22.15;6.60;;;6.40;99.90;;;;;;5003511;28;20048;-78
2024/02/02 04:23:24;;;;;;;26.88;6.78;;;6.40;99.90;;;;;;5005049;28;20049;-78
2024/02/02 04:25:50;;;;;;;29.60;6.72;;;6.40;99.90;;;;;;5000748;28;20049;-78
2024/02/02 04:28:15;;;;;;;29.20;6.95;;;6.40;99.90;;;;;;5006708;28;20443;-80
2024/02/02 04:30:41;;;;;;;28.80;7.45;;;6.40;99.90;;;;;;5011630;28;20467;-77
2024/02/02 04:33:06;;;;;;;23.70;7.75;;;6.40;99.90;;;;;;5009568;28;20095;-78
2024/02/02 04:35:34;;;;;;;26.58;7.20;;;6.40;99.90;;;;;;5003204;28;20041;-78
2024/02/02 04:38:01;;;;;;;31.65;7.47;;;6.40;99.90;;;;;;5000135;28;20404;-78
2024/02/02 04:40:27;;;;;;;32.47;8.15;;;6.40;99.90;;;;;;5009140;28;20037;-78
2024/02/02 04:42:52;;;;;;;24.05;6.40;;;6.40;99.90;;;;;;5010269;28;20117;-78
2024/02/02 04:45:18;;;;;;;26.60;7.57;;;6.40;99.90;;;;;;5008486;28;20077;-79
2024/02/02 04:47:44;;;;;;;31.90;7.25;;;6.40;99.90;;;;;;5005057;28;20128;-78
2024/02/02 04:50:09;;;;;;;18.73;7.28;;;6.30;99.90;;;;;;5002829;28;20038;-77
2024/02/02 04:52:35;;;;;;;28.23;7.60;;;6.40;99.90;;;;;;5009741;28;20041;-77
2024/02/02 04:55:01;;;;;;;28.67;8.05;;;6.30;99.90;;;;;;5005352;28;20116;-77
2024/02/02 04:57:26;;;;;;;26.30;7.20;;;6.30;99.90;;;;;;5006927;28;20046;-78
2024/02/02 04:59:54;;;;;;;25.40;7.63;;;6.30;99.90;;;;;;5010368;28;20056;-79
2024/02/02 05:02:19;;;;;;;24.80;7.72;;;6.30;99.90;;;;;;5009558;28;20038;-77
2024/02/02 05:04:45;;;;;;;30.05;8.05;;;6.30;99.90;;;;;;5010683;28;20462;-78
2024/02/02 05:07:11;;;;;;;31.00;7.90;;;6.30;99.90;;;;;;5007483;28;20435;-79
2024/02/02 05:09:36;;;;;;;26.77;7.32;;;6.30;99.90;;;;;;5003107;28;20483;-77
2024/02/02 05:12:02;;;;;;;31.05;6.90;;;6.30;99.90;;;;;;5008247;28;20135;-78
2024/02/02 05:14:27;;;;;;;30.92;7.88;;;6.30;99.90;;;;;;5000715;28;20057;-78
2024/02/02 05:16:53;;;;;;;33.58;7.80;;;6.20;99.90;;;;;;5006834;28;20042;-77
2024/02/02 05:19:18;;;;;;;30.25;7.40;;;6.20;99.90;;;;;;5010729;28;20041;-77
2024/02/02 05:21:44;;;;;;;31.20;8.23;;;6.20;99.90;;;;;;5011149;28;20052;-77
2024/02/02 05:24:10;;;;;;;30.67;8.05;;;6.20;99.90;;;;;;5009799;28;20053;-78
2024/02/02 05:26:35;;;;;;;29.23;7.90;;;6.20;99.90;;;;;;5006352;28;20129;-77
2024/02/02 05:29:01;;;;;;;30.20;8.05;;;6.20;99.90;;;;;;5007509;28;20058;-77
2024/02/02 05:31:27;;;;;;;32.17;8.30;;;6.20;99.90;;;;;;5006297;28;20041;-79
2024/02/02 05:33:52;;;;;;;27.80;7.78;;;6.20;99.90;;;;;;4992266;28;20545;-77
2024/02/02 05:36:18;;;;;;;24.02;8.63;;;6.20;99.90;;;;;;5002122;28;20042;-77
2024/02/02 05:38:44;;;;;;;30.13;8.18;;;6.20;99.90;;;;;;5008797;28;20088;-78
2024/02/02 05:41:09;;;;;;;32.80;8.60;;;6.10;99.90;;;;;;5008647;28;20038;-79
2024/02/02 05:43:35;;;;;;;22.10;7.13;;;6.10;99.90;;;;;;5004187;28;20117;-77
2024/02/02 05:46:00;;;;;;;29.02;8.45;;;6.10;99.90;;;;;;5010188;28;20407;-77
2024/02/02 05:48:26;;;;;;;33.78;8.68;;;6.10;99.90;;;;;;5014349;28;20103;-78
2024/02/02 05:50:51;;;;;;;34.50;8.70;;;6.10;99.90;;;;;;5004267;28;20116;-79
2024/02/02 05:53:17;;;;;;;31.10;8.75;;;6.00;99.90;;;;;;5007139;28;20062;-77
2024/02/02 05:55:43;;;;;;;25.67;8.40;;;6.00;99.90;;;;;;5013792;28;20044;-78
2024/02/02 05:58:08;;;;;;;23.85;7.72;;;6.00;99.90;;;;;;5013694;28;20049;-78
2024/02/02 06:00:34;;;;;;;35.80;8.38;;;6.00;99.90;;;;;;5013457;28;20038;-79
2024/02/02 06:02:59;;;;;;;29.38;7.85;;;6.00;99.90;;;;;;5014389;28;20120;-77
2024/02/02 06:05:25;;;;;;;27.98;8.52;;;5.90;99.90;;;;;;5012601;28;20049;-77
2024/02/02 06:07:50;;;;;;;29.88;7.53;;;6.00;99.90;;;;;;5006012;28;20038;-78
2024/02/02 06:10:16;;;;;;;26.02;7.32;;;5.90;99.90;;;;;;5012199;28;20399;-79
2024/02/02 06:12:42;;;;;;;31.63;7.60;;;5.90;99.90;;;;;;5004520;28;20084;-78
2024/02/02 06:15:08;;;;;;;32.65;8.55;;;6.00;99.90;;;;;;5012149;28;20041;-78
2024/02/02 06:17:34;;;;;;;27.70;7.57;;;5.90;99.90;;;;;;5008281;28;20030;-79
2024/02/02 06:19:59;;;;;;;32.35;7.68;;;6.00;99.90;;;;;;5013065;28;20038;-78
2024/02/02 06:22:25;;;;;;;34.40;8.32;;;5.90;99.90;;;;;;5011097;28;20519;-77
2024/02/02 06:24:50;;;;;;;27.02;7.82;;;5.90;99.90;;;;;;5011453;28;20526;-80
2024/02/02 06:27:16;;;;;;;25.23;7.75;;;5.90;99.90;;;;;;5010374;28;20109;-78
2024/02/02 06:29:43;;;;;;;29.35;7.95;;;5.90;99.90;;;;;;5005658;28;20564;-78
2024/02/02 06:32:08;;;;;;;24.20;7.15;;;5.90;99.90;;;;;;4995985;28;20045;-78
2024/02/02 06:34:34;;;;;;;29.80;7.05;;;5.90;99.90;;;;;;5000732;28;20052;-78
2024/02/02 06:36:59;;;;;;;30.88;7.35;;;5.80;99.90;;;;;;5009931;28;20073;-78
2024/02/02 06:39:25;;;;;;;33.40;7.35;;;5.90;99.90;;;;;;5002434;28;20045;-77
2024/02/02 06:41:50;;;;;;;24.90;7.03;;;5.80;99.90;;;;;;5013332;28;20044;-77
2024/02/02 06:44:16;;;;;;;23.27;6.80;;;5.80;99.90;;;;;;5004184;28;20050;-78
2024/02/02 06:46:43;;;;;;;34.88;6.93;;;5.80;99.90;;;;;;5006839;28;20033;-77
2024/02/02 06:49:08;;;;;;;24.33;6.32;;;5.80;99.90;;;;;;5013017;28;20403;-77
2024/02/02 06:51:34;;;;;;;24.20;6.07;;;5.80;99.90;;;;;;5012042;28;20038;-78
2024/02/02 06:54:00;;;;;;;33.33;6.65;;;5.70;99.90;;;;;;5009705;28;20061;-79
2024/02/02 06:56:29;;;;;;;27.42;6.97;;;5.70;99.90;;;;;;5011601;28;20060;-78
2024/02/02 06:58:55;;;;;;;28.52;6.70;;;5.70;99.90;;;;;;5011154;28;20041;-78
2024/02/02 07:01:20;;;;;;;28.70;6.15;;;5.70;99.90;;;;;;4994829;28;20042;-78
2024/02/02 07:03:47;;;;;;;27.40;6.50;;;5.60;99.90;;;;;;5001883;28;20128;-78
2024/02/02 07:06:12;;;;;;;17.88;5.55;;;5.60;99.90;;;;;;5001870;28;20116;-78
2024/02/02 07:08:38;;;;;;;23.48;6.55;;;5.60;99.90;;;;;;5010066;28;20084;-79
2024/02/02 07:11:12;;;;;;;32.47;6.55;;;5.60;99.90;;;;;;5013466;28;20826;-77
2024/02/02 07:13:46;;;;;;;29.92;6.50;;;5.60;99.90;;;;;;5008242;28;20099;-77
2024/02/02 07:16:32;;;;;;;24.45;6.28;;;5.60;99.90;;;;;;5015280;28;20064;-77
2024/02/02 07:18:57;;;;;;;26.42;6.43;;;5.60;99.90;;;;;;5006280;28;20059;-77
2024/02/02 07:21:31;;;;;;;28.80;6.43;;;5.60;99.90;;;;;;5006037;28;20053;-77
2024/02/02 07:23:58;;;;;;;25.80;5.82;;;5.60;99.90;;;;;;5007039;28;20046;-79
2024/02/02 07:26:28;;;;;;;24.25;5.28;;;5.60;99.90;;;;;;5008474;28;20042;-79
2024/02/02 07:28:54;;;;;;;29.23;5.75;;;5.60;99.90;;;;;;5007002;28;20140;-77
2024/02/02 07:31:36;;;;;;;25.20;5.13;;;5.60;99.90;;;;;;5005641;28;20072;-77
2024/02/02 07:34:39;;;;;;;29.05;5.93;;;5.60;99.90;;;;;;5012407;28;20041;-78
2024/02/02 07:37:10;;;;;;;25.20;5.38;;;5.60;99.90;;;;;;5006328;28;20145;-77
2024/02/02 07:39:36;;;;;;;31.73;6.15;;;5.60;99.90;;;;;;5006959;28;20403;-77
2024/02/02 07:42:01;;;;;;;27.38;5.32;;;5.60;99.90;;;;;;5006128;28;20053;-77
2024/02/02 07:44:27;;;;;;;19.83;4.65;;;5.60;99.90;;;;;;4992390;28;20083;-77
2024/02/02 07:46:53;;;;;;;27.50;5.65;;;5.70;99.90;;;;;;5004115;28;20046;-78
2024/02/02 07:49:18;;;;;;;34.92;5.70;;;5.60;99.90;;;;;;5009670;28;20669;-77
2024/02/02 07:51:44;;;;;;;31.77;6.07;;;5.70;99.90;;;;;;5007765;28;20045;-78
2024/02/02 07:54:10;;;;;;;31.05;5.93;;;5.70;99.90;;;;;;5003227;28;20041;-78
2024/02/02 07:56:36;;;;;;;33.95;5.78;;;5.60;99.90;;;;;;5006859;28;20056;-78
2024/02/02 07:59:01;;;;;;;30.27;6.20;;;5.60;99.90;;;;;;5002042;28;20034;-78
2024/02/02 08:01:33;;;;;;;32.00;6.32;;;5.70;99.90;;;;;;5003450;28;20066;-79
2024/02/02 08:04:00;;;;;;;23.83;5.15;;;5.70;99.90;;;;;;5003209;28;20050;-79
2024/02/02 08:06:26;;;;;;;26.92;5.47;;;5.70;99.90;;;;;;5005089;28;20050;-79
2024/02/02 08:08:52;;;;;;;27.52;5.70;;;5.70;99.90;;;;;;5001100;28;20046;-79
2024/02/02 08:11:17;;;;;;;26.15;4.97;;;5.70;99.90;;;;;;4989392;28;20033;-78
2024/02/02 08:13:43;;;;;;;29.80;5.40;;;5.80;99.90;;;;;;5007662;28;20546;-78
2024/02/02 08:16:09;;;;;;;23.10;4.72;;;5.80;99.90;;;;;;5005112;28;20034;-77
2024/02/02 08:18:36;;;;;;;24.75;4.82;;;5.80;99.90;;;;;;5002773;28;20103;-79
2024/02/02 08:21:02;;;;;;;26.58;5.15;;;5.80;99.90;;;;;;5009310;28;20483;-79
2024/02/02 08:23:28;;;;;;;26.02;4.55;;;5.80;99.90;;;;;;5004575;28;20038;-79
2024/02/02 08:25:54;;;;;;;29.50;5.10;;;5.90;99.90;;;;;;5001502;28;20096;-79
2024/02/02 08:28:19;;;;;;;24.40;5.13;;;5.90;99.90;;;;;;5006606;28;20038;-79
2024/02/02 08:30:45;;;;;;;21.75;5.20;;;5.90;99.90;;;;;;5004745;28;20042;-78
2024/02/02 08:33:11;;;;;;;30.63;5.50;;;6.00;99.90;;;;;;5008840;28;20034;-78
2024/02/02 08:35:36;;;;;;;29.13;5.57;;;6.00;99.90;;;;;;5007766;28;20045;-78
2024/02/02 08:38:05;;;;;;;32.08;5.55;;;6.00;99.90;;;;;;4999113;28;21681;-78
2024/02/02 08:40:41;;;;;;;36.60;5.82;;;6.00;99.90;;;;;;5001458;28;20046;-78
2024/02/02 08:43:20;;;;;;;28.38;4.63;;;6.00;99.90;;;;;;5005190;28;20042;-76
2024/02/02 08:46:07;;;;;;;23.40;5.10;;;6.00;99.90;;;;;;5001388;28;20041;-79
2024/02/02 08:48:46;;;;;;;27.58;4.72;;;6.10;99.90;;;;;;4998960;28;20088;-78
2024/02/02 08:51:42;;;;;;;22.30;4.80;;;6.10;99.90;;;;;;5002374;28;20064;-78
2024/02/02 08:54:33;;;;;;;31.02;5.55;;;6.10;99.90;;;;;;4997835;28;20053;-77
2024/02/02 08:57:30;;;;;;;32.30;5.90;;;6.10;99.90;;;;;;4997374;28;20072;-78
2024/02/02 09:00:04;;;;;;;29.63;5.45;;;6.10;99.90;;;;;;5001429;28;20065;-80
2024/02/02 09:02:55;;;;;;;19.42;5.55;;;6.10;99.90;;;;;;5000726;28;20483;-78
2024/02/02 09:05:23;;;;;;;22.77;4.70;;;6.20;99.90;;;;;;4996505;28;20042;-78
2024/02/02 09:08:05;;;;;;;26.38;4.80;;;6.20;99.90;;;;;;5004648;28;20037;-78
2024/02/02 09:10:30;;;;;;;19.73;5.32;;;6.20;99.90;;;;;;5004078;28;20042;-79
2024/02/02 09:13:01;;;;;;;22.75;5.57;;;6.20;99.90;;;;;;4999232;28;20043;-78
2024/02/02 09:15:29;;;;;;;21.60;5.05;;;6.20;99.90;;;;;;5001554;28;20038;-78
2024/02/02 09:17:55;;;;;;;28.20;5.22;;;6.30;99.90;;;;;;4999329;28;20038;-77
2024/02/02 09:20:43;;;;;;;27.83;5.05;;;6.30;99.90;;;;;;5006217;28;20029;-78
2024/02/02 09:23:09;;;;;;;23.50;6.25;;;6.30;99.90;;;;;;5005453;28;20042;-78
2024/02/02 09:25:43;;;;;;;22.48;6.20;;;6.30;99.90;;;;;;5002321;28;20042;-78
2024/02/02 09:28:24;;;;;;;25.45;5.55;;;6.30;99.90;;;;;;5004878;28;20128;-79
2024/02/02 09:31:00;;;;;;;37.03;5.43;;;6.40;99.90;;;;;;5003579;28;20381;-78
2024/02/02 09:33:32;;;;;;;30.90;6.57;;;6.40;99.90;;;;;;5002550;28;20069;-79
2024/02/02 09:36:03;;;;;;;26.30;5.90;;;6.40;99.90;;;;;;5000497;28;20590;-78
2024/02/02 09:38:30;;;;;;;35.78;6.43;;;6.50;99.90;;;;;;5008518;28;20526;-78
2024/02/02 09:41:01;;;;;;;24.20;4.97;;;6.50;99.90;;;;;;5001223;28;20101;-79
2024/02/02 09:43:33;;;;;;;29.37;5.70;;;6.50;99.90;;;;;;4998727;28;21784;-77
2024/02/02 09:46:20;;;;;;;29.30;5.55;;;6.50;99.90;;;;;;5004506;28;20168;-78
2024/02/02 09:49:03;;;;;;;28.27;6.22;;;6.60;99.90;;;;;;5001526;28;20049;-78
2024/02/02 09:51:47;;;;;;;;;;;6.50;99.90;;;;;;5002619;28;20046;-78
2024/02/02 09:54:38;;;;;;;21.95;5.70;;;6.60;99.90;;;;;;4993361;28;20371;-78
2024/02/02 09:57:41;;;;;;;27.02;5.18;;;6.60;99.90;;;;;;5009952;28;20534;-78
2024/02/02 10:00:26;;;;;;;25.05;5.35;;;6.70;99.90;;;;;;4989297;28;20058;-78
2024/02/02 10:03:23;;;;;;;28.60;6.10;;;6.70;99.90;;;;;;5004810;28;20045;-78
2024/02/02 10:06:25;;;;;;;34.65;6.45;;;6.70;99.90;;;;;;5001276;28;20093;-77
2024/02/02 10:09:16;;;;;;;28.05;5.35;;;6.80;99.90;;;;;;5000414;28;20100;-79
2024/02/02 10:11:53;;;;;;;23.13;5.70;;;6.90;99.90;;;;;;5006593;28;20475;-77
2024/02/02 10:14:46;;;;;;;27.25;6.00;;;6.90;99.90;;;;;;5007502;28;20033;-77
2024/02/02 10:17:46;;;;;;;26.45;6.35;;;7.00;99.90;;;;;;5006225;28;20113;-80
2024/02/02 10:20:35;;;;;;;30.05;6.57;;;7.10;99.90;;;;;;4989304;28;20208;-77
2024/02/02 10:23:24;;;;;;;27.52;5.80;;;7.10;99.90;;;;;;5004713;28;20191;-77
2024/02/02 10:26:14;;;;;;;32.38;5.88;;;7.20;99.90;;;;;;5008269;28;20507;-75
2024/02/02 10:29:03;;;;;;;34.45;7.00;;;7.20;99.90;;;;;;5005635;28;20399;-77
2024/02/02 10:31:51;;;;;;;24.88;6.35;;;7.30;99.90;;;;;;5009100;28;20038;-77
2024/02/02 10:34:17;;;;;;;32.45;5.93;;;7.40;99.90;;;;;;4996920;28;20045;-78
2024/02/02 10:37:27;;;;;;;27.58;5.57;;;7.40;99.90;;;;;;5003317;28;20042;-76
2024/02/02 10:40:01;;;;;;;26.42;5.47;;;7.50;99.90;;;;;;4997962;28;20054;-78
2024/02/02 10:42:30;;;;;;;21.98;5.95;;;7.50;99.90;;;;;;5003735;28;20511;-79
2024/02/02 10:45:26;;;;;;;27.00;5.80;;;7.50;99.90;;;;;;5000218;28;20049;-79
2024/02/02 10:48:18;;;;;;;27.38;5.93;;;7.60;99.90;;;;;;5005221;28;20041;-78
2024/02/02 10:50:49;;;;;;;25.23;5.25;;;7.60;99.90;;;;;;5006904;28;20053;-78
2024/02/02 10:53:35;;;;;;;26.10;5.45;;;7.70;99.90;;;;;;4995960;28;20053;-77
2024/02/02 10:56:07;;;;;;;27.20;5.75;;;7.80;99.90;;;;;;5012528;28;20101;-79
2024/02/02 10:58:51;;;;;;;34.67;5.32;;;7.80;99.90;;;;;;5007671;28;20569;-82
2024/02/02 11:01:50;;;;;;;30.10;5.38;;;7.90;99.90;;;;;;5002923;28;20057;-76
2024/02/02 11:04:37;;;;;;;24.95;5.90;;;7.90;99.90;;;;;;5002760;28;20129;-76
2024/02/02 11:07:27;;;;;;;21.33;4.72;;;8.00;99.90;;;;;;4991326;28;20046;-75
2024/02/02 11:10:27;;;;;;;29.48;6.25;;;8.10;99.90;;;;;;5002327;28;20034;-76
2024/02/02 11:13:11;;;;;;;21.33;5.72;;;8.10;99.90;;;;;;4995838;28;20088;-78
2024/02/02 11:15:48;;;;;;;27.15;5.20;;;8.10;99.90;;;;;;5003589;28;20042;-77
2024/02/02 11:18:26;;;;;;;26.75;5.85;;;8.20;99.90;;;;;;5009041;28;20100;-77
2024/02/02 11:20:57;;;;;;;26.38;5.50;;;8.20;99.90;;;;;;5003181;28;20100;-76
2024/02/02 11:23:52;;;;;;;28.55;5.22;;;8.30;99.90;;;;;;5000129;28;20038;-77
2024/02/02 11:26:44;;;;;;;19.73;4.82;;;8.30;99.90;;;;;;4998722;28;20073;-77
2024/02/02 11:29:27;;;;;;;27.27;5.97;;;8.40;99.90;;;;;;4977028;28;20046;-79
2024/02/02 11:32:34;;;;;;;28.88;5.80;;;8.40;99.90;;;;;;5005507;28;20112;-78
2024/02/02 11:35:09;;;;;;;22.83;5.07;;;8.50;99.90;;;;;;4997002;28;20125;-77
2024/02/02 11:37:41;;;;;;;20.58;4.78;;;8.50;99.90;;;;;;5001627;28;20050;-76
2024/02/02 11:40:09;;;;;;;24.83;5.20;;;8.60;99.90;;;;;;5002181;28;20395;-77
2024/02/02 11:42:39;;;;;;;21.70;4.65;;;8.60;99.90;;;;;;5006816;28;20049;-77
2024/02/02 11:45:10;;;;;;;23.90;5.57;;;8.60;99.90;;;;;;5008784;28;20049;-77
2024/02/02 11:47:47;;;;;;;29.38;5.60;;;8.70;99.90;;;;;;5002893;28;20614;-77
2024/02/02 11:50:16;;;;;;;35.60;7.70;;;8.80;99.90;;;;;;5000241;28;20041;-77
2024/02/02 11:52:47;;;;;;;26.58;5.80;;;8.80;99.90;;;;;;5007102;28;20096;-77
2024/02/02 11:55:12;;;;;;;30.15;5.80;;;8.80;99.90;;;;;;4987056;28;20084;-77
2024/02/02 11:57:43;;;;;;;24.88;5.25;;;8.80;99.90;;;;;;5002545;28;20081;-79
2024/02/02 12:00:16;;;;;;;26.80;5.47;;;8.90;99.90;;;;;;5010205;28;20042;-79
2024/02/02 12:02:51;;;;;;;27.52;5.45;;;8.90;99.90;;;;;;5000361;28;20511;-77
2024/02/02 12:05:20;;;;;;;24.50;5.20;;;9.00;99.90;;;;;;5001286;28;20120;-79
2024/02/02 12:07:58;;;;;;;23.08;5.18;;;9.10;99.90;;;;;;4999471;28;20034;-76
2024/02/02 12:10:28;;;;;;;28.23;4.95;;;9.10;99.90;;;;;;5006486;28;20042;-80
2024/02/02 12:13:02;;;;;;;25.85;5.57;;;9.20;99.90;;;;;;5003574;28;20069;-78
2024/02/02 12:15:29;;;;;;;25.40;5.00;;;9.20;99.90;;;;;;5001401;28;20064;-77
2024/02/02 12:17:55;;;;;;;23.25;5.30;;;9.20;99.90;;;;;;4999980;28;20107;-76
2024/02/02 12:20:21;;;;;;;24.25;5.70;;;9.20;99.90;;;;;;5007707;28;20037;-76
2024/02/02 12:22:48;;;;;;;21.83;5.20;;;9.20;99.90;;;;;;4997522;28;20364;-77
2024/02/02 12:25:14;;;;;;;22.38;5.10;;;9.10;99.90;;;;;;5004023;28;20096;-78
2024/02/02 12:27:42;;;;;;;27.48;6.30;;;9.10;99.90;;;;;;5005549;28;20376;-76
2024/02/02 12:30:10;;;;;;;27.60;5.60;;;9.10;99.90;;;;;;5006989;28;20041;-78
2024/02/02 12:32:36;;;;;;;23.05;5.35;;;9.10;99.90;;;;;;5005940;28;20565;-77
2024/02/02 12:35:04;;;;;;;23.92;5.47;;;9.10;99.90;;;;;;5006837;28;20046;-78
2024/02/02 12:37:44;;;;;;;22.10;5.95;;;9.10;99.90;;;;;;5003853;28;20052;-78
2024/02/02 12:40:12;;;;;;;27.33;5.25;;;9.00;99.90;;;;;;5007140;28;20042;-78
2024/02/02 12:42:38;;;;;;;19.02;5.60;;;9.00;99.90;;;;;;5002340;28;20533;-77
2024/02/02 12:45:04;;;;;;;24.20;6.93;;;9.00;99.90;;;;;;5008682;28;20077;-78
2024/02/02 12:47:29;;;;;;;25.85;6.13;;;9.00;99.90;;;;;;4998741;28;20328;-77
2024/02/02 12:49:55;;;;;;;23.33;6.13;;;8.90;99.90;;;;;;5001780;28;20049;-77
2024/02/02 12:52:21;;;;;;;19.80;6.07;;;8.90;99.90;;;;;;5006140;28;20563;-81
2024/02/02 12:54:46;;;;;;;25.75;6.82;;;8.90;99.90;;;;;;5001795;28;20077;-78
2024/02/02 12:57:12;;;;;;;25.52;6.75;;;8.90;99.90;;;;;;5001952;28;20073;-79
2024/02/02 12:59:38;;;;;;;23.20;7.00;;;8.90;99.90;;;;;;4995844;28;20042;-81